Time;durP1;ratioP1;P1;durP2;ratioP2;P2;SDS_P1;SDS_P2;PMS_P1;PMS_P2;Temp;Humidity;BMP_temperature;BMP_pressure;BME280_temperature;BME280_humidity;BME280_pressure;Samples;Min_cycle;Max_cycle;Signal;HPM_P1;HPM_P2
2022/10/28 00:01:06;;;;;;;6.60;2.40;;;14.70;99.90;;;;;;6225115;22;20016;-93
2022/10/28 00:03:35;;;;;;;6.93;2.78;;;14.70;99.90;;;;;;6201214;22;20026;-94
2022/10/28 00:06:10;;;;;;;6.50;2.72;;;14.60;99.90;;;;;;6250991;22;20348;-93
2022/10/28 00:08:36;;;;;;;6.50;2.40;;;14.60;99.90;;;;;;6226077;22;20269;-94
2022/10/28 00:11:17;;;;;;;6.78;2.50;;;14.50;99.90;;;;;;6200337;22;20016;-93
2022/10/28 00:13:44;;;;;;;6.07;2.60;;;14.50;99.90;;;;;;6225761;22;20468;-93
2022/10/28 00:16:16;;;;;;;6.50;2.60;;;14.50;99.90;;;;;;6250993;22;20434;-95
2022/10/28 00:18:42;;;;;;;7.10;3.08;;;14.50;99.90;;;;;;6225428;22;20016;-95
2022/10/28 00:21:10;;;;;;;5.25;2.75;;;14.40;99.90;;;;;;6225659;22;20035;-93
2022/10/28 00:23:37;;;;;;;8.48;3.00;;;14.40;99.90;;;;;;6225741;22;20015;-94
2022/10/28 00:26:04;;;;;;;;;;;14.40;99.90;;;;;;6225804;22;20019;-93
2022/10/28 00:28:29;;;;;;;6.55;2.50;;;14.40;99.90;;;;;;6225471;22;19957;-93
2022/10/28 00:30:55;;;;;;;5.32;2.30;;;14.50;99.90;;;;;;6226686;22;20016;-95
2022/10/28 00:33:21;;;;;;;5.93;2.70;;;14.50;99.90;;;;;;6237853;22;20034;-94
2022/10/28 00:35:46;;;;;;;5.00;2.77;;;14.50;99.90;;;;;;6252920;22;20020;-95
2022/10/28 00:38:32;;;;;;;7.00;3.20;;;14.50;99.90;;;;;;6232088;22;20246;-95
2022/10/28 00:40:58;;;;;;;9.73;2.80;;;14.60;99.90;;;;;;6225650;22;20253;-95
2022/10/28 00:43:39;;;;;;;5.25;3.05;;;14.60;99.90;;;;;;6225275;22;20012;-93
2022/10/28 00:46:17;;;;;;;7.72;2.70;;;14.60;99.90;;;;;;6225541;22;20011;-94
2022/10/28 00:48:46;;;;;;;7.15;2.90;;;14.60;99.90;;;;;;6225232;22;20016;-94
2022/10/28 00:59:29;;;;;;;7.72;3.00;;;14.60;99.90;;;;;;6235607;22;20027;-95
2022/10/28 01:02:05;;;;;;;;;;;;;;;;;;;;;
2022/10/28 01:13:59;;;;;;;;;;;;;;;;;;;;;
2022/10/28 01:16:05;;;;;;;8.32;3.25;;;14.80;99.90;;;;;;6083618;23;20109;-93
2022/10/28 01:18:51;;;;;;;8.20;3.50;;;14.90;99.90;;;;;;6202648;22;20443;-93
2022/10/28 01:22:22;;;;;;;;;;;;;;;;;;;;;
2022/10/28 01:25:19;;;;;;;;;;;;;;;;;;;;;
2022/10/28 01:28:25;;;;;;;7.65;3.15;;;14.90;99.90;;;;;;6311377;22;20022;-93
2022/10/28 01:30:53;;;;;;;6.15;2.75;;;14.90;99.90;;;;;;6285885;22;20015;-93
2022/10/28 01:47:29;;;;;;;7.20;2.75;;;14.70;99.90;;;;;;6341031;22;20073;-93
2022/10/28 03:03:21;;;;;;;5.72;3.03;;;13.90;99.90;;;;;;6186287;22;20033;-95
2022/10/28 03:05:47;;;;;;;10.50;3.20;;;13.80;99.90;;;;;;6156444;23;20457;-93
2022/10/28 03:08:13;;;;;;;7.55;3.58;;;13.80;99.90;;;;;;6132144;23;20036;-93
2022/10/28 03:10:38;;;;;;;8.55;4.13;;;13.80;99.90;;;;;;6131775;23;20021;-94
2022/10/28 03:13:04;;;;;;;7.50;3.50;;;13.80;99.90;;;;;;6132863;23;20078;-93
2022/10/28 03:15:29;;;;;;;7.50;3.85;;;13.70;99.90;;;;;;6145741;23;20005;-92
2022/10/28 03:17:55;;;;;;;7.82;4.13;;;13.80;99.90;;;;;;6158265;23;20054;-95
2022/10/28 03:20:21;;;;;;;9.03;3.77;;;13.70;99.90;;;;;;6144282;23;20017;-95
2022/10/28 03:22:46;;;;;;;7.75;4.03;;;13.80;99.90;;;;;;6132655;23;20021;-96
2022/10/28 03:25:12;;;;;;;9.37;4.57;;;13.80;99.90;;;;;;6132333;23;20442;-95
2022/10/28 03:27:40;;;;;;;7.20;4.05;;;13.80;99.90;;;;;;6132670;23;20260;-95
2022/10/28 03:30:06;;;;;;;11.02;4.05;;;13.80;99.90;;;;;;6133167;23;20055;-94
2022/10/28 03:32:32;;;;;;;8.45;4.30;;;13.80;99.90;;;;;;6134299;22;20017;-93
2022/10/28 03:34:57;;;;;;;10.07;4.13;;;13.80;99.90;;;;;;6136181;23;20021;-96
2022/10/28 03:37:23;;;;;;;8.70;4.17;;;13.80;99.90;;;;;;6136833;23;20251;-93
2022/10/28 03:39:49;;;;;;;8.18;3.78;;;13.80;99.90;;;;;;6132465;23;20452;-96
2022/10/28 03:42:14;;;;;;;8.80;4.30;;;13.80;99.90;;;;;;6235694;22;20439;-95
2022/10/28 03:44:40;;;;;;;7.80;4.10;;;13.90;99.90;;;;;;6132352;23;20092;-92
2022/10/28 03:47:06;;;;;;;7.57;3.57;;;13.80;99.90;;;;;;6132484;23;20017;-93
2022/10/28 03:49:32;;;;;;;11.18;4.47;;;13.80;99.90;;;;;;6132920;23;20245;-92
2022/10/28 03:51:57;;;;;;;8.70;4.25;;;13.80;99.90;;;;;;6136555;23;20005;-93
2022/10/28 03:54:23;;;;;;;9.00;4.28;;;13.70;99.90;;;;;;6150703;23;20062;-93
2022/10/28 03:56:49;;;;;;;8.18;4.30;;;13.70;99.90;;;;;;6134182;23;20028;-96
2022/10/28 03:59:14;;;;;;;10.55;3.85;;;13.70;99.90;;;;;;6137318;23;20023;-96
2022/10/28 04:01:40;;;;;;;12.70;4.83;;;13.60;99.90;;;;;;6133272;23;20458;-95
2022/10/28 04:04:06;;;;;;;8.03;4.23;;;13.60;99.90;;;;;;6227599;22;20291;-94
2022/10/28 04:06:31;;;;;;;8.30;4.63;;;13.60;99.90;;;;;;6187309;23;20103;-95
2022/10/28 04:08:58;;;;;;;10.15;4.82;;;13.60;99.90;;;;;;6161432;23;20469;-95
2022/10/28 04:11:24;;;;;;;;;;;13.60;99.90;;;;;;6188792;23;20023;-96
2022/10/28 04:13:49;;;;;;;10.48;4.30;;;13.60;99.90;;;;;;6186993;23;19915;-94
2022/10/28 04:16:15;;;;;;;9.60;4.50;;;13.60;99.90;;;;;;6188366;23;20391;-96
2022/10/28 04:18:41;;;;;;;8.13;4.30;;;13.50;99.90;;;;;;6189072;23;20020;-96
2022/10/28 04:21:06;;;;;;;7.43;3.70;;;13.50;99.90;;;;;;6140715;23;20244;-95
2022/10/28 04:23:32;;;;;;;7.97;3.70;;;13.40;99.90;;;;;;6189518;23;20260;-96
2022/10/28 04:25:58;;;;;;;9.35;4.43;;;13.40;99.90;;;;;;6186997;23;20042;-96
2022/10/28 04:28:24;;;;;;;7.77;3.67;;;13.30;99.90;;;;;;6186114;23;20017;-96
2022/10/28 04:30:49;;;;;;;8.90;4.05;;;13.30;99.90;;;;;;6185868;23;20020;-95
2022/10/28 04:33:15;;;;;;;8.68;4.35;;;13.30;99.90;;;;;;6186346;23;20111;-95
2022/10/28 04:35:44;;;;;;;7.15;3.78;;;13.20;99.90;;;;;;6186617;23;20434;-94
2022/10/28 04:38:14;;;;;;;7.82;4.00;;;13.20;99.90;;;;;;6186278;23;20027;-96
2022/10/28 04:40:40;;;;;;;9.85;3.65;;;13.20;99.90;;;;;;6185867;23;20021;-95
2022/10/28 04:43:05;;;;;;;7.55;3.78;;;13.20;99.90;;;;;;6185991;23;20024;-94
2022/10/28 04:46:12;;;;;;;8.52;4.50;;;13.20;99.90;;;;;;6185927;23;20013;-95
2022/10/28 04:48:41;;;;;;;9.45;4.43;;;13.20;99.90;;;;;;6186392;23;20025;-94
2022/10/28 08:59:59;;;;;;;;;;;;;;;;;;;;;
2022/10/28 09:03:21;;;;;;;7.00;2.70;;;15.90;99.90;;;;;;6342140;22;20022;-93
2022/10/28 09:06:13;;;;;;;7.72;2.88;;;16.00;99.90;;;;;;6265474;22;20026;-96
2022/10/28 10:58:18;;;;;;;8.95;3.00;;;17.40;99.90;;;;;;6285915;22;20019;-94
2022/10/28 11:14:23;;;;;;;6.32;2.47;;;17.80;99.90;;;;;;6263727;22;20031;-91
2022/10/28 11:32:28;;;;;;;6.05;2.13;;;18.00;99.90;;;;;;6185420;22;20082;-92
2022/10/28 11:35:24;;;;;;;7.78;2.30;;;18.00;99.90;;;;;;6161256;22;20459;-93
2022/10/28 11:38:19;;;;;;;6.05;2.45;;;18.10;99.90;;;;;;6138548;23;20013;-92
2022/10/28 14:04:55;;;;;;;6.80;2.20;;;19.00;99.90;;;;;;6200192;22;20029;-92
2022/10/28 16:24:12;;;;;;;9.05;3.03;;;18.10;99.90;;;;;;6286409;22;20022;-92
2022/10/28 16:27:36;;;;;;;7.30;2.38;;;18.00;99.90;;;;;;6288215;22;20019;-92
2022/10/28 16:36:07;;;;;;;7.85;3.30;;;18.00;99.90;;;;;;6340112;22;19922;-92
2022/10/28 16:38:33;;;;;;;7.35;2.65;;;17.90;99.90;;;;;;6261232;22;20019;-92
2022/10/28 16:40:59;;;;;;;10.30;4.63;;;17.90;99.90;;;;;;6261641;22;20371;-94
2022/10/28 16:43:27;;;;;;;5.97;2.78;;;17.90;99.90;;;;;;6263018;22;20021;-92
2022/10/28 16:45:54;;;;;;;9.25;3.67;;;17.90;99.90;;;;;;6289132;22;20010;-95
2022/10/28 18:08:43;;;;;;;7.03;2.20;;;17.60;99.90;;;;;;6239286;22;20023;-96
2022/10/28 18:11:12;;;;;;;6.13;2.10;;;17.60;99.90;;;;;;6262672;22;20517;-94
2022/10/28 18:22:38;;;;;;;7.13;1.98;;;17.60;99.90;;;;;;6235051;22;20045;-93
2022/10/28 18:25:07;;;;;;;5.55;2.03;;;17.60;99.90;;;;;;6288253;22;20019;-93
2022/10/28 18:30:04;;;;;;;6.22;1.95;;;17.50;99.90;;;;;;6342086;22;20011;-94
2022/10/28 18:32:31;;;;;;;5.80;1.73;;;17.50;99.90;;;;;;6291165;22;20026;-96
2022/10/28 18:34:56;;;;;;;8.25;2.20;;;17.50;99.90;;;;;;6290785;22;20014;-95
2022/10/28 18:38:07;;;;;;;6.20;2.47;;;17.50;99.90;;;;;;6264476;22;20069;-96
2022/10/28 19:03:55;;;;;;;5.55;1.60;;;17.40;99.90;;;;;;6328932;22;20452;-93
2022/10/28 19:06:22;;;;;;;8.23;1.98;;;17.40;99.90;;;;;;6263672;22;20400;-93
2022/10/28 19:08:53;;;;;;;6.93;2.13;;;17.40;99.90;;;;;;6289621;22;20053;-94
2022/10/28 19:26:51;;;;;;;4.25;1.40;;;17.40;99.90;;;;;;6331297;22;20026;-92
2022/10/28 20:24:56;;;;;;;13.07;2.17;;;17.00;99.90;;;;;;6339864;22;20026;-96
2022/10/28 20:27:22;;;;;;;5.30;2.08;;;16.90;99.90;;;;;;6261762;22;20073;-93
2022/10/28 20:29:48;;;;;;;8.07;1.77;;;16.90;99.90;;;;;;6261289;22;20085;-94
2022/10/28 20:32:14;;;;;;;7.70;1.92;;;16.90;99.90;;;;;;6286764;22;20022;-94
2022/10/28 20:34:39;;;;;;;5.97;1.95;;;16.90;99.90;;;;;;6286618;22;20443;-91
2022/10/28 20:37:57;;;;;;;;;;;;;;;;;;;;;
2022/10/28 20:40:32;;;;;;;5.78;1.88;;;16.80;99.90;;;;;;6312657;22;20086;-93
2022/10/28 20:42:58;;;;;;;11.25;2.13;;;16.80;99.90;;;;;;6261186;22;20050;-94
2022/10/28 20:45:23;;;;;;;6.22;1.90;;;16.70;99.90;;;;;;6286124;22;20384;-92
2022/10/28 20:47:52;;;;;;;6.60;1.88;;;16.70;99.90;;;;;;6286345;22;20019;-94
2022/10/28 20:50:18;;;;;;;6.72;2.28;;;16.70;99.90;;;;;;6261194;22;20014;-94
2022/10/28 20:52:43;;;;;;;10.68;1.95;;;16.60;99.90;;;;;;6286620;22;20071;-93
2022/10/28 20:55:09;;;;;;;9.13;2.20;;;16.60;99.90;;;;;;6287474;22;20011;-96
2022/10/28 20:57:35;;;;;;;7.15;1.60;;;16.60;99.90;;;;;;6286443;22;20018;-95
2022/10/28 21:00:02;;;;;;;8.82;2.15;;;16.50;99.90;;;;;;6260759;22;20010;-96
2022/10/28 21:02:28;;;;;;;9.02;1.70;;;16.50;99.90;;;;;;6261248;22;20015;-93
2022/10/28 21:04:54;;;;;;;6.78;1.70;;;16.50;99.90;;;;;;6260790;22;20080;-94
2022/10/28 21:37:38;;;;;;;7.15;1.98;;;16.20;99.90;;;;;;6174875;22;20104;-92
2022/10/28 21:40:05;;;;;;;8.82;2.50;;;16.20;99.90;;;;;;6199933;22;20019;-94
2022/10/28 21:43:36;;;;;;;6.38;1.70;;;16.20;99.90;;;;;;6175413;22;20016;-93
2022/10/28 21:46:02;;;;;;;6.18;1.70;;;16.20;99.90;;;;;;6203592;22;20015;-94
2022/10/28 21:48:28;;;;;;;11.02;1.90;;;16.10;99.90;;;;;;6224997;22;20064;-92
2022/10/28 21:50:59;;;;;;;7.68;2.15;;;16.10;99.90;;;;;;6199732;22;20112;-92
2022/10/28 21:53:26;;;;;;;5.93;1.30;;;16.10;99.90;;;;;;6225065;22;20113;-92
2022/10/28 21:55:52;;;;;;;6.55;2.38;;;16.10;99.90;;;;;;6225154;22;20468;-92
2022/10/28 21:58:18;;;;;;;4.60;1.52;;;16.10;99.90;;;;;;6177019;22;20020;-93
2022/10/28 22:01:18;;;;;;;8.88;1.90;;;16.00;99.90;;;;;;6227239;22;20016;-93
2022/10/28 22:03:44;;;;;;;12.20;2.30;;;16.00;99.90;;;;;;6226935;22;20055;-95
2022/10/28 22:06:10;;;;;;;5.78;1.90;;;16.00;99.90;;;;;;6202100;22;20022;-90
2022/10/28 22:08:36;;;;;;;6.18;2.25;;;15.90;99.90;;;;;;6226700;22;20062;-94
2022/10/28 22:11:10;;;;;;;6.82;1.98;;;15.90;99.90;;;;;;6227199;22;20031;-95
2022/10/28 22:13:36;;;;;;;8.52;2.22;;;15.90;99.90;;;;;;6252965;22;20015;-94
2022/10/28 22:16:05;;;;;;;11.65;2.05;;;15.90;99.90;;;;;;6202396;22;20022;-95
2022/10/28 22:18:32;;;;;;;6.45;1.20;;;15.80;99.90;;;;;;6252181;22;20012;-91
2022/10/28 22:21:06;;;;;;;9.93;2.95;;;15.80;99.90;;;;;;6230022;22;20106;-94
2022/10/28 22:23:32;;;;;;;9.48;2.03;;;15.80;99.90;;;;;;6268699;22;20019;-91
2022/10/28 22:26:03;;;;;;;6.68;2.10;;;15.80;99.90;;;;;;6177113;22;20016;-91
2022/10/28 22:28:29;;;;;;;10.98;2.28;;;15.80;99.90;;;;;;6201760;22;20102;-91
2022/10/28 22:31:19;;;;;;;7.20;1.88;;;15.70;99.90;;;;;;6252291;22;20038;-91
2022/10/28 22:33:45;;;;;;;9.55;2.83;;;15.70;99.90;;;;;;6215918;22;20069;-93
2022/10/28 22:36:18;;;;;;;9.32;2.38;;;15.70;99.90;;;;;;6226784;22;20015;-91
2022/10/28 22:38:44;;;;;;;7.00;2.13;;;15.70;99.90;;;;;;6160708;22;20024;-93
2022/10/28 22:41:17;;;;;;;7.20;2.05;;;15.70;99.90;;;;;;6151645;23;20018;-91
2022/10/28 22:43:46;;;;;;;8.15;2.33;;;15.70;99.90;;;;;;6102851;23;20021;-91
2022/10/28 22:46:13;;;;;;;8.85;2.25;;;15.60;99.90;;;;;;6127313;23;20092;-92
2022/10/28 22:48:40;;;;;;;8.75;2.08;;;15.60;99.90;;;;;;6127006;23;20021;-95
2022/10/28 22:51:08;;;;;;;;;;;15.50;99.90;;;;;;6103382;23;20013;-92
2022/10/28 22:53:34;;;;;;;5.70;1.80;;;15.60;99.90;;;;;;6127360;23;19923;-91
2022/10/28 22:56:00;;;;;;;10.25;1.80;;;15.50;99.90;;;;;;6107578;23;20021;-96
2022/10/28 22:58:26;;;;;;;11.30;2.05;;;15.50;99.90;;;;;;6130174;22;20008;-93
2022/10/28 23:34:32;;;;;;;8.00;2.22;;;15.20;99.90;;;;;;6161010;23;20071;-94
2022/10/28 23:36:58;;;;;;;8.07;2.22;;;15.20;99.90;;;;;;6136774;23;20111;-94
2022/10/28 23:52:20;;;;;;;5.40;1.88;;;15.10;99.90;;;;;;6242045;22;20030;-96
